Aviation Digital Data Service (ADDS)

Output produced by METARs form (1037 UTC 18 June 2019)
found at http://www.aviationweather.gov/metar/data/
 
METAR text: PGUM 180954Z 09004KT 10SM CLR 28/23 A2986 RMK AO2 SLP102 T02780228
Conditions at: PGUM (AGANA , GU, US) observed 0954 UTC 18 June 2019
Temperature: 27.8°C (82°F)
Dewpoint: 22.8°C (73°F) [RH = 74%]
Pressure (altimeter): 29.86 inches Hg (1011.3 mb)
[Sea-level pressure: 1010.2 mb]
Winds: from the E (90 degrees) at 5 MPH (4 knots; 2.1 m/s)
Visibility: 10 or more miles (16+ km)
Ceiling: at least 12,000 feet AGL
Clouds: sky clear below 12,000 feet AGL
Weather: no significant weather observed at this time

METAR text: PGUM 180854Z 09005KT 10SM CLR 28/23 A2984 RMK AO2 SLP096 T02830228 53004
Conditions at: PGUM (AGANA , GU, US) observed 0854 UTC 18 June 2019
Temperature: 28.3°C (83°F)
Dewpoint: 22.8°C (73°F) [RH = 72%]
Pressure (altimeter): 29.84 inches Hg (1010.6 mb)
[Sea-level pressure: 1009.6 mb]
Winds: from the E (90 degrees) at 6 MPH (5 knots; 2.6 m/s)
Visibility: 10 or more miles (16+ km)
Ceiling: at least 12,000 feet AGL
Clouds: sky clear below 12,000 feet AGL
Weather: no significant weather observed at this time

METAR text: PGUM 180754Z 10008KT 10SM CLR 29/22 A2983 RMK AO2 SLP092 T02940222
Conditions at: PGUM (AGANA , GU, US) observed 0754 UTC 18 June 2019
Temperature: 29.4°C (85°F)
Dewpoint: 22.2°C (72°F) [RH = 65%]
Pressure (altimeter): 29.83 inches Hg (1010.2 mb)
[Sea-level pressure: 1009.2 mb]
Winds: from the E (100 degrees) at 9 MPH (8 knots; 4.1 m/s)
Visibility: 10 or more miles (16+ km)
Ceiling: at least 12,000 feet AGL
Clouds: sky clear below 12,000 feet AGL
Weather: no significant weather observed at this time

METAR text: PGUM 180654Z 09010KT 10SM FEW021 30/23 A2982 RMK AO2 SLP091 T03000228
Conditions at: PGUM (AGANA , GU, US) observed 0654 UTC 18 June 2019
Temperature: 30.0°C (86°F)
Dewpoint: 22.8°C (73°F) [RH = 65%]
Pressure (altimeter): 29.82 inches Hg (1009.9 mb)
[Sea-level pressure: 1009.1 mb]
Winds: from the E (90 degrees) at 12 MPH (10 knots; 5.1 m/s)
Visibility: 10 or more miles (16+ km)
Ceiling: at least 12,000 feet AGL
Clouds: few clouds at 2100 feet AGL
Weather: no significant weather observed at this time

METAR text: PGUM 180554Z 10011KT 10SM FEW023 31/23 A2983 RMK AO2 SLP092 60000 T03060228 10317 20283 56011
Conditions at: PGUM (AGANA , GU, US) observed 0554 UTC 18 June 2019
Temperature: 30.6°C (87°F)
Dewpoint: 22.8°C (73°F) [RH = 63%]
Pressure (altimeter): 29.83 inches Hg (1010.2 mb)
[Sea-level pressure: 1009.2 mb]
Winds: from the E (100 degrees) at 13 MPH (11 knots; 5.7 m/s)
Visibility: 10 or more miles (16+ km)
Ceiling: at least 12,000 feet AGL
Clouds: few clouds at 2300 feet AGL
Weather: no significant weather observed at this time

METAR text: PGUM 180454Z 11007G15KT 10SM FEW019 31/24 A2984 RMK AO2 RAB10E22 SLP095 P0000 T03060239
Conditions at: PGUM (AGANA , GU, US) observed 0454 UTC 18 June 2019
Temperature: 30.6°C (87°F)
Dewpoint: 23.9°C (75°F) [RH = 68%]
Pressure (altimeter): 29.84 inches Hg (1010.6 mb)
[Sea-level pressure: 1009.5 mb]
Winds: from the ESE (110 degrees) at 8 MPH (7 knots; 3.6 m/s)
gusting to 17 MPH (15 knots; 7.7 m/s)
Visibility: 10 or more miles (16+ km)
Ceiling: at least 12,000 feet AGL
Clouds: few clouds at 1900 feet AGL
Weather: no significant weather observed at this time

METAR text: PGUM 180422Z 10009KT 10SM FEW020 SCT029 BKN070 29/23 A2984 RMK AO2 RAB10E22 P0000 T02940233
Conditions at: PGUM (AGANA , GU, US) observed 0422 UTC 18 June 2019
Temperature: 29.4°C (85°F)
Dewpoint: 23.3°C (74°F) [RH = 70%]
Pressure (altimeter): 29.84 inches Hg (1010.6 mb)
Winds: from the E (100 degrees) at 10 MPH (9 knots; 4.6 m/s)
Visibility: 10 or more miles (16+ km)
Ceiling: 7000 feet AGL
Clouds: few clouds at 2000 feet AGL
scattered clouds at 2900 feet AGL
broken clouds at 7000 feet AGL
Weather: no significant weather observed at this time

METAR text: PGUM 180354Z 13009KT 10SM SCT021 BKN028 30/24 A2985 RMK AO2 SLP098 T03000239
Conditions at: PGUM (AGANA , GU, US) observed 0354 UTC 18 June 2019
Temperature: 30.0°C (86°F)
Dewpoint: 23.9°C (75°F) [RH = 70%]
Pressure (altimeter): 29.85 inches Hg (1010.9 mb)
[Sea-level pressure: 1009.8 mb]
Winds: from the SE (130 degrees) at 10 MPH (9 knots; 4.6 m/s)
Visibility: 10 or more miles (16+ km)
Ceiling: 2800 feet AGL
Clouds: scattered clouds at 2100 feet AGL
broken clouds at 2800 feet AGL
Weather: no significant weather observed at this time

METAR text: PGUM 180335Z 11009KT 10SM FEW020 BKN028 BKN034 31/23 A2985 RMK AO2 T03060233
Conditions at: PGUM (AGANA , GU, US) observed 0335 UTC 18 June 2019
Temperature: 30.6°C (87°F)
Dewpoint: 23.3°C (74°F) [RH = 65%]
Pressure (altimeter): 29.85 inches Hg (1010.9 mb)
Winds: from the ESE (110 degrees) at 10 MPH (9 knots; 4.6 m/s)
Visibility: 10 or more miles (16+ km)
Ceiling: 2800 feet AGL
Clouds: few clouds at 2000 feet AGL
broken clouds at 2800 feet AGL
broken clouds at 3400 feet AGL
Weather: no significant weather observed at this time

METAR text: PGUM 180254Z 10010KT 10SM SCT022 SCT030 BKN055 31/23 A2986 RMK AO2 SLP103 T03060228 58008
Conditions at: PGUM (AGANA , GU, US) observed 0254 UTC 18 June 2019
Temperature: 30.6°C (87°F)
Dewpoint: 22.8°C (73°F) [RH = 63%]
Pressure (altimeter): 29.86 inches Hg (1011.3 mb)
[Sea-level pressure: 1010.3 mb]
Winds: from the E (100 degrees) at 12 MPH (10 knots; 5.1 m/s)
Visibility: 10 or more miles (16+ km)
Ceiling: 5500 feet AGL
Clouds: scattered clouds at 2200 feet AGL
scattered clouds at 3000 feet AGL
broken clouds at 5500 feet AGL
Weather: no significant weather observed at this time

METAR text: PGUM 180154Z 10014G19KT 10SM SCT070 BKN090 31/23 A2987 RMK AO2 SLP108 T03060228
Conditions at: PGUM (AGANA , GU, US) observed 0154 UTC 18 June 2019
Temperature: 30.6°C (87°F)
Dewpoint: 22.8°C (73°F) [RH = 63%]
Pressure (altimeter): 29.87 inches Hg (1011.6 mb)
[Sea-level pressure: 1010.8 mb]
Winds: from the E (100 degrees) at 16 MPH (14 knots; 7.2 m/s)
gusting to 22 MPH (19 knots; 9.8 m/s)
Visibility: 10 or more miles (16+ km)
Ceiling: 9000 feet AGL
Clouds: scattered clouds at 7000 feet AGL
broken clouds at 9000 feet AGL
Weather: no significant weather observed at this time

METAR text: PGUM 180054Z 08014KT 10SM FEW022 SCT070 31/24 A2988 RMK AO2 SLP110 T03060244
Conditions at: PGUM (AGANA , GU, US) observed 0054 UTC 18 June 2019
Temperature: 30.6°C (87°F)
Dewpoint: 24.4°C (76°F) [RH = 70%]
Pressure (altimeter): 29.88 inches Hg (1011.9 mb)
[Sea-level pressure: 1011.0 mb]
Winds: from the E (80 degrees) at 16 MPH (14 knots; 7.2 m/s)
Visibility: 10 or more miles (16+ km)
Ceiling: at least 12,000 feet AGL
Clouds: few clouds at 2200 feet AGL
scattered clouds at 7000 feet AGL
Weather: no significant weather observed at this time

METAR text: PGUM 172354Z 10008KT 10SM CLR 29/25 A2988 RMK AO2 RAE29 SLP112 P0001 60004 T02940250 10294 20261 50002
Conditions at: PGUM (AGANA , GU, US) observed 2354 UTC 17 June 2019
Temperature: 29.4°C (85°F)
Dewpoint: 25.0°C (77°F) [RH = 77%]
Pressure (altimeter): 29.88 inches Hg (1011.9 mb)
[Sea-level pressure: 1011.2 mb]
Winds: from the E (100 degrees) at 9 MPH (8 knots; 4.1 m/s)
Visibility: 10 or more miles (16+ km)
Ceiling: at least 12,000 feet AGL
Clouds: sky clear below 12,000 feet AGL
Weather: no significant weather observed at this time

METAR text: PGUM 172317Z 12005KT 6SM -RA FEW009 BKN050 OVC070 27/24 A2989 RMK AO2 P0000 T02670239
Conditions at: PGUM (AGANA , GU, US) observed 2317 UTC 17 June 2019
Temperature: 26.7°C (80°F)
Dewpoint: 23.9°C (75°F) [RH = 85%]
Pressure (altimeter): 29.89 inches Hg (1012.3 mb)
Winds: from the ESE (120 degrees) at 6 MPH (5 knots; 2.6 m/s)
Visibility: 6 miles (10 km)
Ceiling: 5000 feet AGL
Clouds: few clouds at 900 feet AGL
broken clouds at 5000 feet AGL
overcast cloud deck at 7000 feet AGL
Weather: -RA  (light rain)

METAR text: PGUM 172254Z 11011KT 9SM -RA SCT050 SCT065 27/24 A2989 RMK AO2 RAB49 SLP114 P0000 T02720239
Conditions at: PGUM (AGANA , GU, US) observed 2254 UTC 17 June 2019
Temperature: 27.2°C (81°F)
Dewpoint: 23.9°C (75°F) [RH = 82%]
Pressure (altimeter): 29.89 inches Hg (1012.3 mb)
[Sea-level pressure: 1011.4 mb]
Winds: from the ESE (110 degrees) at 13 MPH (11 knots; 5.7 m/s)
Visibility: 9 miles (14 km)
Ceiling: at least 12,000 feet AGL
Clouds: scattered clouds at 5000 feet AGL
scattered clouds at 6500 feet AGL
Weather: -RA  (light rain)

METAR text: PGUM 172154Z 07007KT 10SM FEW032 28/25 A2989 RMK AO2 SLP112 T02830250
Conditions at: PGUM (AGANA , GU, US) observed 2154 UTC 17 June 2019
Temperature: 28.3°C (83°F)
Dewpoint: 25.0°C (77°F) [RH = 82%]
Pressure (altimeter): 29.89 inches Hg (1012.3 mb)
[Sea-level pressure: 1011.2 mb]
Winds: from the ENE (70 degrees) at 8 MPH (7 knots; 3.6 m/s)
Visibility: 10 or more miles (16+ km)
Ceiling: at least 12,000 feet AGL
Clouds: few clouds at 3200 feet AGL
Weather: no significant weather observed at this time

METAR text: PGUM 172054Z 05004KT 10SM CLR 27/24 A2988 RMK AO2 RAB02E15 SLP110 P0003 60003 T02720239 53009
Conditions at: PGUM (AGANA , GU, US) observed 2054 UTC 17 June 2019
Temperature: 27.2°C (81°F)
Dewpoint: 23.9°C (75°F) [RH = 82%]
Pressure (altimeter): 29.88 inches Hg (1011.9 mb)
[Sea-level pressure: 1011.0 mb]
Winds: from the NE (50 degrees) at 5 MPH (4 knots; 2.1 m/s)
Visibility: 10 or more miles (16+ km)
Ceiling: at least 12,000 feet AGL
Clouds: sky clear below 12,000 feet AGL
Weather: no significant weather observed at this time

METAR text: PGUM 171954Z 06007KT 10SM CLR 27/23 A2987 RMK AO2 SLP106 T02720233
Conditions at: PGUM (AGANA , GU, US) observed 1954 UTC 17 June 2019
Temperature: 27.2°C (81°F)
Dewpoint: 23.3°C (74°F) [RH = 79%]
Pressure (altimeter): 29.87 inches Hg (1011.6 mb)
[Sea-level pressure: 1010.6 mb]
Winds: from the ENE (60 degrees) at 8 MPH (7 knots; 3.6 m/s)
Visibility: 10 or more miles (16+ km)
Ceiling: at least 12,000 feet AGL
Clouds: sky clear below 12,000 feet AGL
Weather: no significant weather observed at this time

METAR text: PGUM 171854Z 06005KT 10SM CLR 27/23 A2986 RMK AO2 SLP103 T02670233
Conditions at: PGUM (AGANA , GU, US) observed 1854 UTC 17 June 2019
Temperature: 26.7°C (80°F)
Dewpoint: 23.3°C (74°F) [RH = 82%]
Pressure (altimeter): 29.86 inches Hg (1011.3 mb)
[Sea-level pressure: 1010.3 mb]
Winds: from the ENE (60 degrees) at 6 MPH (5 knots; 2.6 m/s)
Visibility: 10 or more miles (16+ km)
Ceiling: at least 12,000 feet AGL
Clouds: sky clear below 12,000 feet AGL
Weather: no significant weather observed at this time

METAR text: PGUM 171754Z 05005KT 10SM CLR 26/23 A2985 RMK AO2 SLP101 T02610233 10283 20261 56012
Conditions at: PGUM (AGANA , GU, US) observed 1754 UTC 17 June 2019
Temperature: 26.1°C (79°F)
Dewpoint: 23.3°C (74°F) [RH = 85%]
Pressure (altimeter): 29.85 inches Hg (1010.9 mb)
[Sea-level pressure: 1010.1 mb]
Winds: from the NE (50 degrees) at 6 MPH (5 knots; 2.6 m/s)
Visibility: 10 or more miles (16+ km)
Ceiling: at least 12,000 feet AGL
Clouds: sky clear below 12,000 feet AGL
Weather: no significant weather observed at this time

METAR text: PGUM 171654Z 06004KT 10SM CLR 27/23 A2986 RMK AO2 SLP104 T02720233
Conditions at: PGUM (AGANA , GU, US) observed 1654 UTC 17 June 2019
Temperature: 27.2°C (81°F)
Dewpoint: 23.3°C (74°F) [RH = 79%]
Pressure (altimeter): 29.86 inches Hg (1011.3 mb)
[Sea-level pressure: 1010.4 mb]
Winds: from the ENE (60 degrees) at 5 MPH (4 knots; 2.1 m/s)
Visibility: 10 or more miles (16+ km)
Ceiling: at least 12,000 feet AGL
Clouds: sky clear below 12,000 feet AGL
Weather: no significant weather observed at this time

METAR text: PGUM 171554Z 07005KT 10SM FEW033 FEW060 27/23 A2987 RMK AO2 SLP106 T02720233
Conditions at: PGUM (AGANA , GU, US) observed 1554 UTC 17 June 2019
Temperature: 27.2°C (81°F)
Dewpoint: 23.3°C (74°F) [RH = 79%]
Pressure (altimeter): 29.87 inches Hg (1011.6 mb)
[Sea-level pressure: 1010.6 mb]
Winds: from the ENE (70 degrees) at 6 MPH (5 knots; 2.6 m/s)
Visibility: 10 or more miles (16+ km)
Ceiling: at least 12,000 feet AGL
Clouds: few clouds at 3300 feet AGL
few clouds at 6000 feet AGL
Weather: no significant weather observed at this time

METAR text: PGUM 171454Z 05004KT 10SM CLR 27/24 A2989 RMK AO2 SLP113 T02720239 58008
Conditions at: PGUM (AGANA , GU, US) observed 1454 UTC 17 June 2019
Temperature: 27.2°C (81°F)
Dewpoint: 23.9°C (75°F) [RH = 82%]
Pressure (altimeter): 29.89 inches Hg (1012.3 mb)
[Sea-level pressure: 1011.3 mb]
Winds: from the NE (50 degrees) at 5 MPH (4 knots; 2.1 m/s)
Visibility: 10 or more miles (16+ km)
Ceiling: at least 12,000 feet AGL
Clouds: sky clear below 12,000 feet AGL
Weather: no significant weather observed at this time

METAR text: PGUM 171354Z 09005KT 10SM CLR 28/24 A2990 RMK AO2 SLP118 T02780239 403280250
Conditions at: PGUM (AGANA , GU, US) observed 1354 UTC 17 June 2019
Temperature: 27.8°C (82°F)
Dewpoint: 23.9°C (75°F) [RH = 79%]
Pressure (altimeter): 29.90 inches Hg (1012.6 mb)
[Sea-level pressure: 1011.8 mb]
Winds: from the E (90 degrees) at 6 MPH (5 knots; 2.6 m/s)
Visibility: 10 or more miles (16+ km)
Ceiling: at least 12,000 feet AGL
Clouds: sky clear below 12,000 feet AGL
Weather: no significant weather observed at this time

METAR text: PGUM 171254Z 09005KT 10SM CLR 28/23 A2992 RMK AO2 SLP122 T02780233
Conditions at: PGUM (AGANA , GU, US) observed 1254 UTC 17 June 2019
Temperature: 27.8°C (82°F)
Dewpoint: 23.3°C (74°F) [RH = 77%]
Pressure (altimeter): 29.92 inches Hg (1013.3 mb)
[Sea-level pressure: 1012.2 mb]
Winds: from the E (90 degrees) at 6 MPH (5 knots; 2.6 m/s)
Visibility: 10 or more miles (16+ km)
Ceiling: at least 12,000 feet AGL
Clouds: sky clear below 12,000 feet AGL
Weather: no significant weather observed at this time

METAR text: PGUM 171154Z 09005KT 10SM CLR 28/24 A2991 RMK AO2 SLP122 70007 T02830239 10311 20283 51013
Conditions at: PGUM (AGANA , GU, US) observed 1154 UTC 17 June 2019
Temperature: 28.3°C (83°F)
Dewpoint: 23.9°C (75°F) [RH = 77%]
Pressure (altimeter): 29.91 inches Hg (1013.0 mb)
[Sea-level pressure: 1012.2 mb]
Winds: from the E (90 degrees) at 6 MPH (5 knots; 2.6 m/s)
Visibility: 10 or more miles (16+ km)
Ceiling: at least 12,000 feet AGL
Clouds: sky clear below 12,000 feet AGL
Weather: no significant weather observed at this time

METAR text: PGUM 171054Z 07006KT 10SM CLR 28/24 A2990 RMK AO2 SLP117 T02830239
Conditions at: PGUM (AGANA , GU, US) observed 1054 UTC 17 June 2019
Temperature: 28.3°C (83°F)
Dewpoint: 23.9°C (75°F) [RH = 77%]
Pressure (altimeter): 29.90 inches Hg (1012.6 mb)
[Sea-level pressure: 1011.7 mb]
Winds: from the ENE (70 degrees) at 7 MPH (6 knots; 3.1 m/s)
Visibility: 10 or more miles (16+ km)
Ceiling: at least 12,000 feet AGL
Clouds: sky clear below 12,000 feet AGL
Weather: no significant weather observed at this time

METAR text: PGUM 170954Z 07006KT 10SM FEW023 28/23 A2989 RMK AO2 SLP114 T02830233
Conditions at: PGUM (AGANA , GU, US) observed 0954 UTC 17 June 2019
Temperature: 28.3°C (83°F)
Dewpoint: 23.3°C (74°F) [RH = 74%]
Pressure (altimeter): 29.89 inches Hg (1012.3 mb)
[Sea-level pressure: 1011.4 mb]
Winds: from the ENE (70 degrees) at 7 MPH (6 knots; 3.1 m/s)
Visibility: 10 or more miles (16+ km)
Ceiling: at least 12,000 feet AGL
Clouds: few clouds at 2300 feet AGL
Weather: no significant weather observed at this time

METAR text: PGUM 170854Z 09008KT 10SM FEW019 29/23 A2988 RMK AO2 SLP108 T02890233 53007
Conditions at: PGUM (AGANA , GU, US) observed 0854 UTC 17 June 2019
Temperature: 28.9°C (84°F)
Dewpoint: 23.3°C (74°F) [RH = 72%]
Pressure (altimeter): 29.88 inches Hg (1011.9 mb)
[Sea-level pressure: 1010.8 mb]
Winds: from the E (90 degrees) at 9 MPH (8 knots; 4.1 m/s)
Visibility: 10 or more miles (16+ km)
Ceiling: at least 12,000 feet AGL
Clouds: few clouds at 1900 feet AGL
Weather: no significant weather observed at this time

METAR text: PGUM 170754Z 09010KT 10SM FEW022 FEW027 30/23 A2987 RMK AO2 SLP106 T03000233
Conditions at: PGUM (AGANA , GU, US) observed 0754 UTC 17 June 2019
Temperature: 30.0°C (86°F)
Dewpoint: 23.3°C (74°F) [RH = 67%]
Pressure (altimeter): 29.87 inches Hg (1011.6 mb)
[Sea-level pressure: 1010.6 mb]
Winds: from the E (90 degrees) at 12 MPH (10 knots; 5.1 m/s)
Visibility: 10 or more miles (16+ km)
Ceiling: at least 12,000 feet AGL
Clouds: few clouds at 2200 feet AGL
few clouds at 2700 feet AGL
Weather: no significant weather observed at this time

METAR text: PGUM 170654Z 10009KT 10SM FEW022 31/23 A2986 RMK AO2 SLP103 T03060233
Conditions at: PGUM (AGANA , GU, US) observed 0654 UTC 17 June 2019
Temperature: 30.6°C (87°F)
Dewpoint: 23.3°C (74°F) [RH = 65%]
Pressure (altimeter): 29.86 inches Hg (1011.3 mb)
[Sea-level pressure: 1010.3 mb]
Winds: from the E (100 degrees) at 10 MPH (9 knots; 4.6 m/s)
Visibility: 10 or more miles (16+ km)
Ceiling: at least 12,000 feet AGL
Clouds: few clouds at 2200 feet AGL
Weather: no significant weather observed at this time

METAR text: PGUM 170554Z 10008KT 10SM CLR 31/24 A2985 RMK AO2 SLP101 T03060239 10328 20300 56011
Conditions at: PGUM (AGANA , GU, US) observed 0554 UTC 17 June 2019
Temperature: 30.6°C (87°F)
Dewpoint: 23.9°C (75°F) [RH = 68%]
Pressure (altimeter): 29.85 inches Hg (1010.9 mb)
[Sea-level pressure: 1010.1 mb]
Winds: from the E (100 degrees) at 9 MPH (8 knots; 4.1 m/s)
Visibility: 10 or more miles (16+ km)
Ceiling: at least 12,000 feet AGL
Clouds: sky clear below 12,000 feet AGL
Weather: no significant weather observed at this time

METAR text: PGUM 170454Z 10012KT 10SM FEW027 32/23 A2986 RMK AO2 SLP104 T03170228
Conditions at: PGUM (AGANA , GU, US) observed 0454 UTC 17 June 2019
Temperature: 31.7°C (89°F)
Dewpoint: 22.8°C (73°F) [RH = 59%]
Pressure (altimeter): 29.86 inches Hg (1011.3 mb)
[Sea-level pressure: 1010.4 mb]
Winds: from the E (100 degrees) at 14 MPH (12 knots; 6.2 m/s)
Visibility: 10 or more miles (16+ km)
Ceiling: at least 12,000 feet AGL
Clouds: few clouds at 2700 feet AGL
Weather: no significant weather observed at this time

METAR text: PGUM 170354Z 10011KT 10SM FEW028 32/23 A2987 RMK AO2 SLP105 T03220228
Conditions at: PGUM (AGANA , GU, US) observed 0354 UTC 17 June 2019
Temperature: 32.2°C (90°F)
Dewpoint: 22.8°C (73°F) [RH = 58%]
Pressure (altimeter): 29.87 inches Hg (1011.6 mb)
[Sea-level pressure: 1010.5 mb]
Winds: from the E (100 degrees) at 13 MPH (11 knots; 5.7 m/s)
Visibility: 10 or more miles (16+ km)
Ceiling: at least 12,000 feet AGL
Clouds: few clouds at 2800 feet AGL
Weather: no significant weather observed at this time

METAR text: PGUM 170254Z 09010KT 10SM FEW027 32/23 A2989 RMK AO2 SLP111 T03170228 56008
Conditions at: PGUM (AGANA , GU, US) observed 0254 UTC 17 June 2019
Temperature: 31.7°C (89°F)
Dewpoint: 22.8°C (73°F) [RH = 59%]
Pressure (altimeter): 29.89 inches Hg (1012.3 mb)
[Sea-level pressure: 1011.1 mb]
Winds: from the E (90 degrees) at 12 MPH (10 knots; 5.1 m/s)
Visibility: 10 or more miles (16+ km)
Ceiling: at least 12,000 feet AGL
Clouds: few clouds at 2700 feet AGL
Weather: no significant weather observed at this time

METAR text: PGUM 170154Z 08012KT 10SM SCT026 31/23 A2989 RMK AO2 SLP114 T03110233
Conditions at: PGUM (AGANA , GU, US) observed 0154 UTC 17 June 2019
Temperature: 31.1°C (88°F)
Dewpoint: 23.3°C (74°F) [RH = 63%]
Pressure (altimeter): 29.89 inches Hg (1012.3 mb)
[Sea-level pressure: 1011.4 mb]
Winds: from the E (80 degrees) at 14 MPH (12 knots; 6.2 m/s)
Visibility: 10 or more miles (16+ km)
Ceiling: at least 12,000 feet AGL
Clouds: scattered clouds at 2600 feet AGL
Weather: no significant weather observed at this time

METAR text: PGUM 170054Z 07014KT 10SM SCT026 31/23 A2990 RMK AO2 SLP116 T03110233
Conditions at: PGUM (AGANA , GU, US) observed 0054 UTC 17 June 2019
Temperature: 31.1°C (88°F)
Dewpoint: 23.3°C (74°F) [RH = 63%]
Pressure (altimeter): 29.90 inches Hg (1012.6 mb)
[Sea-level pressure: 1011.6 mb]
Winds: from the ENE (70 degrees) at 16 MPH (14 knots; 7.2 m/s)
Visibility: 10 or more miles (16+ km)
Ceiling: at least 12,000 feet AGL
Clouds: scattered clouds at 2600 feet AGL
Weather: no significant weather observed at this time

METAR text: PGUM 162354Z 08011KT 10SM SCT021 30/24 A2991 RMK AO2 SLP120 60007 T03000239 10306 20256 58001
Conditions at: PGUM (AGANA , GU, US) observed 2354 UTC 16 June 2019
Temperature: 30.0°C (86°F)
Dewpoint: 23.9°C (75°F) [RH = 70%]
Pressure (altimeter): 29.91 inches Hg (1013.0 mb)
[Sea-level pressure: 1012.0 mb]
Winds: from the E (80 degrees) at 13 MPH (11 knots; 5.7 m/s)
Visibility: 10 or more miles (16+ km)
Ceiling: at least 12,000 feet AGL
Clouds: scattered clouds at 2100 feet AGL
Weather: no significant weather observed at this time

METAR text: PGUM 162254Z 08011KT 10SM CLR 29/24 A2991 RMK AO2 SLP121 T02940239
Conditions at: PGUM (AGANA , GU, US) observed 2254 UTC 16 June 2019
Temperature: 29.4°C (85°F)
Dewpoint: 23.9°C (75°F) [RH = 72%]
Pressure (altimeter): 29.91 inches Hg (1013.0 mb)
[Sea-level pressure: 1012.1 mb]
Winds: from the E (80 degrees) at 13 MPH (11 knots; 5.7 m/s)
Visibility: 10 or more miles (16+ km)
Ceiling: at least 12,000 feet AGL
Clouds: sky clear below 12,000 feet AGL
Weather: no significant weather observed at this time

Forecast for: PGUM (AGANA , GU, US)
Text: PGUM 180523Z 1806/1912 10011KT P6SM VCSH FEW020 SCT040
Forecast period: 0600 UTC 18 June 2019 to 1200 UTC 19 June 2019
Forecast type: FROM: standard forecast or significant change
Winds: from the E (100 degrees) at 13 MPH (11 knots; 5.7 m/s)
Visibility: 6 or more miles 10+ km)
Ceiling: at least 12,000 feet AGL
Clouds: few clouds at 2000 feet AGL
scattered clouds at 4000 feet AGL
Weather: VCSH  (showers in vicinity)